createdAt,value
2022-10-31T00:01:11.991Z,14.90
2022-10-31T00:03:39.875Z,14.80
2022-10-31T00:06:07.806Z,14.70
2022-10-31T00:08:35.656Z,14.90
2022-10-31T00:11:03.511Z,15.40
2022-10-31T00:13:32.851Z,15.40
2022-10-31T00:16:00.716Z,15.10
2022-10-31T00:18:28.550Z,15.10
2022-10-31T00:21:00.614Z,15.00
2022-10-31T00:23:28.488Z,15.00
2022-10-31T00:25:56.352Z,14.80
2022-10-31T00:28:24.214Z,14.80
2022-10-31T00:30:53.436Z,14.60
2022-10-31T00:33:21.294Z,14.80
2022-10-31T00:35:51.429Z,14.70
2022-10-31T00:38:19.325Z,14.70
2022-10-31T00:40:47.171Z,14.80
2022-10-31T00:43:15.038Z,14.80
2022-10-31T00:45:43.171Z,14.80
2022-10-31T00:48:12.397Z,14.70
2022-10-31T00:50:40.318Z,14.60
2022-10-31T00:53:08.171Z,14.80
2022-10-31T00:55:36.050Z,14.80
2022-10-31T00:58:04.271Z,14.80
2022-10-31T01:00:32.470Z,14.90
2022-10-31T01:03:00.610Z,14.90
2022-10-31T01:05:30.106Z,15.00
2022-10-31T01:07:57.983Z,15.20
2022-10-31T01:10:25.882Z,15.40
2022-10-31T01:12:53.719Z,15.10
2022-10-31T01:15:22.139Z,15.00
2022-10-31T01:17:50.005Z,14.90
2022-10-31T01:20:17.883Z,14.80
2022-10-31T01:22:47.139Z,15.00
2022-10-31T01:25:15.019Z,14.70
2022-10-31T01:27:42.864Z,14.70
2022-10-31T01:30:11.223Z,14.50
2022-10-31T01:32:39.064Z,14.60
2022-10-31T01:35:07.097Z,14.30
2022-10-31T01:37:34.938Z,14.20
2022-10-31T01:40:04.365Z,14.30
2022-10-31T01:42:32.195Z,14.60
2022-10-31T01:45:00.692Z,14.60
2022-10-31T01:47:42.804Z,14.50
2022-10-31T01:50:15.236Z,14.70
2022-10-31T01:52:43.437Z,14.60
2022-10-31T01:55:13.997Z,14.90
2022-10-31T01:57:42.517Z,14.80
2022-10-31T02:00:10.954Z,14.70
2022-10-31T02:02:38.884Z,14.50
2022-10-31T02:05:07.701Z,14.50
2022-10-31T02:07:36.317Z,14.40
2022-10-31T02:10:04.436Z,14.50
2022-10-31T02:12:33.670Z,14.50
2022-10-31T02:15:01.556Z,14.40
2022-10-31T02:17:29.450Z,14.30
2022-10-31T02:19:59.253Z,14.60
2022-10-31T02:22:28.293Z,14.50
2022-10-31T02:25:00.791Z,14.50
2022-10-31T02:27:42.202Z,14.60
2022-10-31T02:30:12.237Z,14.70
2022-10-31T02:32:58.519Z,14.80
2022-10-31T02:35:35.727Z,14.70
2022-10-31T02:38:05.191Z,14.60
2022-10-31T02:40:33.910Z,14.70
2022-10-31T02:43:02.944Z,14.70
2022-10-31T02:45:31.748Z,14.80
2022-10-31T02:48:05.763Z,14.80
2022-10-31T02:50:34.300Z,14.90
2022-10-31T02:53:02.678Z,14.60
2022-10-31T02:55:44.903Z,14.60
2022-10-31T02:58:13.234Z,14.50
2022-10-31T03:00:44.813Z,14.70
2022-10-31T03:03:16.754Z,14.60
2022-10-31T03:05:47.850Z,14.60
2022-10-31T03:08:17.284Z,14.50
2022-10-31T03:10:45.725Z,14.50
2022-10-31T03:13:14.945Z,14.50
2022-10-31T03:15:43.416Z,14.60
2022-10-31T03:18:11.686Z,14.70
2022-10-31T03:20:41.703Z,14.60
2022-10-31T03:23:10.562Z,14.70
2022-10-31T03:25:38.449Z,14.60
2022-10-31T03:28:06.524Z,14.70
2022-10-31T03:30:35.288Z,14.50
2022-10-31T03:33:04.010Z,14.20
2022-10-31T03:35:32.053Z,14.20
2022-10-31T03:38:05.421Z,14.00
2022-10-31T03:40:35.543Z,13.80
2022-10-31T03:43:04.354Z,13.90
2022-10-31T03:45:32.399Z,14.00
2022-10-31T03:48:00.599Z,14.10
2022-10-31T03:50:29.884Z,14.30
2022-10-31T03:52:59.198Z,14.50
2022-10-31T03:55:30.316Z,14.30
2022-10-31T03:57:59.598Z,14.10
2022-10-31T04:00:27.739Z,14.10
2022-10-31T04:02:56.132Z,14.20
2022-10-31T04:05:24.080Z,14.20
2022-10-31T04:07:54.532Z,14.20
2022-10-31T04:10:23.194Z,13.90
2022-10-31T04:12:54.511Z,14.00
2022-10-31T04:15:22.378Z,14.00
2022-10-31T04:17:50.221Z,13.90
2022-10-31T04:20:18.159Z,14.10
2022-10-31T04:22:46.038Z,14.30
2022-10-31T04:25:13.926Z,14.20
2022-10-31T04:27:41.818Z,14.10
2022-10-31T04:30:11.736Z,14.20
2022-10-31T04:32:39.605Z,14.20
2022-10-31T04:35:07.799Z,14.20
2022-10-31T04:37:35.635Z,14.50
2022-10-31T04:40:03.525Z,14.30
2022-10-31T04:42:31.440Z,14.60
2022-10-31T04:44:59.301Z,14.40
2022-10-31T04:47:28.506Z,14.90
2022-10-31T04:49:56.367Z,15.20
2022-10-31T04:52:24.199Z,15.40
2022-10-31T04:54:52.277Z,15.40
2022-10-31T04:57:20.120Z,15.30
2022-10-31T04:59:47.973Z,15.20
2022-10-31T05:02:15.896Z,14.80
2022-10-31T05:04:45.234Z,14.20
2022-10-31T05:07:13.070Z,14.30
2022-10-31T05:09:40.927Z,14.70
2022-10-31T05:12:08.746Z,14.70
2022-10-31T05:14:36.651Z,14.10
2022-10-31T05:17:04.479Z,14.30
2022-10-31T05:19:32.345Z,14.60
2022-10-31T05:22:01.551Z,14.80
2022-10-31T05:24:29.427Z,14.70
2022-10-31T05:26:57.346Z,14.30
2022-10-31T05:29:25.322Z,14.10
2022-10-31T05:31:53.187Z,14.30
2022-10-31T05:34:21.053Z,14.30
2022-10-31T05:36:48.918Z,14.00
2022-10-31T05:39:18.220Z,14.20
2022-10-31T05:41:46.055Z,14.30
2022-10-31T05:44:13.896Z,14.40
2022-10-31T05:46:42.073Z,14.50
2022-10-31T05:49:09.954Z,14.40
2022-10-31T05:51:37.816Z,14.60
2022-10-31T05:54:05.940Z,14.60
2022-10-31T05:56:35.167Z,14.00
2022-10-31T05:59:03.043Z,14.00
2022-10-31T06:01:30.974Z,14.20
2022-10-31T06:03:58.901Z,14.10
2022-10-31T06:06:26.718Z,13.80
2022-10-31T06:08:54.590Z,13.70
2022-10-31T06:11:22.414Z,13.90
2022-10-31T06:13:51.692Z,13.60
2022-10-31T06:16:19.530Z,13.70
2022-10-31T06:18:47.586Z,13.60
2022-10-31T06:21:18.065Z,13.70
2022-10-31T06:23:47.247Z,13.50
2022-10-31T06:26:15.109Z,13.30
2022-10-31T06:28:42.963Z,13.30
2022-10-31T06:31:12.189Z,13.30
2022-10-31T06:33:40.051Z,13.40
2022-10-31T06:36:08.102Z,13.90
2022-10-31T06:38:35.956Z,14.10
2022-10-31T06:41:04.510Z,14.20
2022-10-31T06:43:32.583Z,14.30
2022-10-31T06:46:03.662Z,14.10
2022-10-31T06:48:33.269Z,14.20
2022-10-31T06:51:01.231Z,14.10
2022-10-31T06:53:30.725Z,13.70
2022-10-31T06:55:58.725Z,13.90
2022-10-31T06:58:26.741Z,14.20
2022-10-31T07:00:54.761Z,14.20
2022-10-31T07:03:22.754Z,14.60
2022-10-31T07:05:52.302Z,15.70
2022-10-31T07:08:21.481Z,18.00
2022-10-31T07:10:52.850Z,19.90
2022-10-31T07:13:22.751Z,20.80
2022-10-31T07:15:50.703Z,21.80
2022-10-31T07:18:18.700Z,21.80
2022-10-31T07:20:46.693Z,22.90
2022-10-31T07:23:16.015Z,23.60
2022-10-31T07:25:44.016Z,23.70
2022-10-31T07:28:11.924Z,22.70
2022-10-31T07:30:39.863Z,19.60
2022-10-31T07:33:07.903Z,18.60
2022-10-31T07:35:36.582Z,17.80
2022-10-31T07:38:10.709Z,17.60
2022-10-31T07:40:41.194Z,17.40
2022-10-31T07:43:13.962Z,17.60
2022-10-31T07:45:42.937Z,17.30
2022-10-31T07:48:11.370Z,17.30
2022-10-31T07:50:40.419Z,17.20
2022-10-31T07:53:09.023Z,16.90
2022-10-31T07:55:37.322Z,17.20
2022-10-31T07:58:07.759Z,17.10
2022-10-31T08:00:36.459Z,17.00
2022-10-31T08:03:04.974Z,16.80
2022-10-31T08:05:33.588Z,17.30
2022-10-31T08:08:02.157Z,17.20
2022-10-31T08:10:31.614Z,17.20
2022-10-31T08:13:04.628Z,17.50
2022-10-31T08:15:35.211Z,17.30
2022-10-31T08:18:04.644Z,17.50
2022-10-31T08:20:33.392Z,17.60
2022-10-31T08:23:02.238Z,17.60
2022-10-31T08:25:33.818Z,17.70
2022-10-31T08:28:05.994Z,17.70
2022-10-31T08:30:37.225Z,17.70
2022-10-31T08:33:06.230Z,17.80
2022-10-31T08:35:34.507Z,17.80
2022-10-31T08:38:03.481Z,17.80
2022-10-31T08:40:33.480Z,17.90
2022-10-31T08:43:01.684Z,18.10
2022-10-31T08:45:29.731Z,18.00
2022-10-31T08:48:03.773Z,18.20
2022-10-31T08:50:33.003Z,18.20
2022-10-31T08:53:05.861Z,18.40
2022-10-31T08:55:35.007Z,18.70
2022-10-31T08:58:03.502Z,19.00
2022-10-31T09:00:32.147Z,19.50
2022-10-31T09:03:00.620Z,20.30
2022-10-31T09:05:30.415Z,20.80
2022-10-31T09:07:59.788Z,21.30
2022-10-31T09:10:28.816Z,21.30
2022-10-31T09:12:57.188Z,22.20
2022-10-31T09:15:25.348Z,21.70
2022-10-31T09:17:53.703Z,21.80
2022-10-31T09:20:21.720Z,21.80
2022-10-31T09:22:57.239Z,22.30
2022-10-31T09:25:25.692Z,22.30
2022-10-31T09:27:54.211Z,22.20
2022-10-31T09:30:25.836Z,21.90
2022-10-31T09:32:57.388Z,22.20
2022-10-31T09:35:25.946Z,22.20
2022-10-31T09:37:59.195Z,21.80
2022-10-31T09:40:30.081Z,21.60
2022-10-31T09:42:58.835Z,21.80
2022-10-31T09:45:28.622Z,21.30
2022-10-31T09:48:01.442Z,21.40
2022-10-31T09:50:31.008Z,21.20
2022-10-31T09:53:01.876Z,20.60
2022-10-31T09:55:32.506Z,20.80
2022-10-31T09:58:00.738Z,21.10
2022-10-31T10:00:28.787Z,21.00
2022-10-31T10:02:59.297Z,20.70
2022-10-31T10:05:29.631Z,20.70
2022-10-31T10:07:59.774Z,20.80
2022-10-31T10:10:31.764Z,20.80
2022-10-31T10:13:08.302Z,20.80
2022-10-31T10:15:45.564Z,21.10
2022-10-31T10:18:16.753Z,20.60
2022-10-31T10:20:46.188Z,21.40
2022-10-31T10:23:20.269Z,21.20
2022-10-31T10:25:51.120Z,20.90
2022-10-31T10:28:20.806Z,20.40
2022-10-31T10:30:49.376Z,20.60
2022-10-31T10:33:18.604Z,21.10
2022-10-31T10:35:48.134Z,21.10
2022-10-31T10:38:22.305Z,21.10
2022-10-31T10:40:51.777Z,21.40
2022-10-31T10:43:37.191Z,21.00
2022-10-31T10:46:34.792Z,21.30
2022-10-31T10:49:08.328Z,21.30
2022-10-31T10:54:36.320Z,21.00
2022-10-31T10:57:09.262Z,21.10
2022-10-31T10:59:37.392Z,21.20
2022-10-31T11:02:12.464Z,21.40
2022-10-31T11:04:41.508Z,21.20
2022-10-31T11:07:10.313Z,21.20
2022-10-31T11:09:40.573Z,21.00
2022-10-31T11:12:11.168Z,21.00
2022-10-31T11:14:47.675Z,21.30
2022-10-31T11:17:24.390Z,21.40
2022-10-31T11:20:02.171Z,21.50
2022-10-31T11:22:30.359Z,21.30
2022-10-31T11:24:58.666Z,21.30
2022-10-31T11:27:28.502Z,21.30
2022-10-31T11:30:05.948Z,21.50
2022-10-31T11:32:34.112Z,21.50
2022-10-31T11:35:03.709Z,21.50
2022-10-31T11:37:32.304Z,21.50
2022-10-31T11:40:00.585Z,21.40
2022-10-31T11:42:32.394Z,21.30
2022-10-31T11:45:00.342Z,20.80
2022-10-31T11:47:29.677Z,20.90
2022-10-31T11:49:57.865Z,20.80
2022-10-31T11:52:26.503Z,21.10
2022-10-31T11:54:56.119Z,21.70
2022-10-31T11:57:27.283Z,21.70
2022-10-31T11:59:57.254Z,21.80
2022-10-31T12:02:25.263Z,21.80
2022-10-31T12:04:54.928Z,21.80
2022-10-31T12:07:23.037Z,21.80
2022-10-31T12:09:51.048Z,21.50
2022-10-31T12:12:41.471Z,21.70
2022-10-31T12:15:27.594Z,21.70
2022-10-31T12:20:34.312Z,21.80
2022-10-31T12:23:04.264Z,22.00
2022-10-31T12:25:35.892Z,21.70
2022-10-31T12:28:11.804Z,21.80
2022-10-31T12:30:43.513Z,22.00
2022-10-31T12:33:23.138Z,22.00
2022-10-31T12:35:53.798Z,22.00
2022-10-31T12:38:39.699Z,21.60
2022-10-31T12:41:25.295Z,21.40
2022-10-31T12:43:55.263Z,21.70
2022-10-31T12:46:26.486Z,21.50
2022-10-31T12:49:07.122Z,21.50
2022-10-31T12:51:36.366Z,21.70
2022-10-31T12:54:08.992Z,21.80
2022-10-31T12:56:40.914Z,21.90
2022-10-31T12:59:11.205Z,22.00
2022-10-31T13:01:39.898Z,21.80
2022-10-31T13:04:18.003Z,22.00
2022-10-31T13:06:57.544Z,22.00
2022-10-31T13:09:26.096Z,21.90
2022-10-31T13:11:54.333Z,21.80
2022-10-31T13:14:24.237Z,21.30
2022-10-31T13:16:52.301Z,21.50
2022-10-31T13:19:22.852Z,21.50
2022-10-31T13:21:54.060Z,21.50
2022-10-31T13:24:23.365Z,21.30
2022-10-31T13:26:51.648Z,21.30
2022-10-31T13:29:20.960Z,21.50
2022-10-31T13:31:49.132Z,21.90
2022-10-31T13:34:21.781Z,22.50
2022-10-31T13:36:50.847Z,22.80
2022-10-31T13:39:21.654Z,23.00
2022-10-31T13:41:50.615Z,23.20
2022-10-31T13:44:20.048Z,23.30
2022-10-31T13:46:48.211Z,23.30
2022-10-31T13:49:26.031Z,22.60
2022-10-31T13:51:54.566Z,23.10
2022-10-31T13:54:23.319Z,23.00
2022-10-31T13:56:51.254Z,23.20
2022-10-31T13:59:21.870Z,23.40
2022-10-31T14:01:50.771Z,23.60
2022-10-31T14:04:24.869Z,23.70
2022-10-31T14:06:59.505Z,23.50
2022-10-31T14:09:29.363Z,23.90
2022-10-31T14:11:57.425Z,24.00
2022-10-31T14:14:26.017Z,23.70
2022-10-31T14:16:56.138Z,23.70
2022-10-31T14:19:24.261Z,23.30
2022-10-31T14:21:52.390Z,23.10
2022-10-31T14:24:34.790Z,23.10
2022-10-31T14:27:23.196Z,23.20
2022-10-31T14:29:51.221Z,23.30
2022-10-31T14:32:21.880Z,22.90
2022-10-31T14:34:54.106Z,22.90
2022-10-31T14:37:26.515Z,22.80
2022-10-31T14:39:59.757Z,22.80
2022-10-31T14:42:33.837Z,22.30
2022-10-31T14:45:08.943Z,22.20
2022-10-31T14:47:39.043Z,22.40
2022-10-31T14:50:11.465Z,22.40
2022-10-31T14:52:39.705Z,22.40
2022-10-31T14:55:12.437Z,22.20
2022-10-31T14:57:40.499Z,22.40
2022-10-31T15:00:09.733Z,22.30
2022-10-31T15:02:38.992Z,22.30
2022-10-31T15:05:09.398Z,22.10
2022-10-31T15:07:41.132Z,22.00
2022-10-31T15:10:21.206Z,22.10
2022-10-31T15:12:49.357Z,22.00
2022-10-31T15:15:19.501Z,21.50
2022-10-31T15:17:50.233Z,21.60
2022-10-31T15:20:19.844Z,21.20
2022-10-31T15:22:48.143Z,21.70
2022-10-31T15:25:19.487Z,21.60
2022-10-31T15:27:47.971Z,21.30
2022-10-31T15:30:18.870Z,21.40
2022-10-31T15:32:55.327Z,21.40
2022-10-31T15:35:26.899Z,21.50
2022-10-31T15:37:55.030Z,21.30
2022-10-31T15:40:25.558Z,21.10
2022-10-31T15:42:54.396Z,20.60
2022-10-31T15:45:24.452Z,20.30
2022-10-31T15:47:55.383Z,20.00
2022-10-31T15:50:24.621Z,20.00
2022-10-31T15:52:52.714Z,20.30
2022-10-31T15:55:21.711Z,20.30
2022-10-31T15:57:51.418Z,20.30
2022-10-31T16:00:24.085Z,20.30
2022-10-31T16:02:52.484Z,20.30
2022-10-31T16:05:20.971Z,20.20
2022-10-31T16:07:50.889Z,20.30
2022-10-31T16:10:26.260Z,20.30
2022-10-31T16:12:55.701Z,20.10
2022-10-31T16:15:23.670Z,20.10
2022-10-31T16:17:52.382Z,19.70
2022-10-31T16:20:21.667Z,19.60
2022-10-31T16:22:50.704Z,19.70
2022-10-31T16:25:19.162Z,19.50
2022-10-31T16:27:54.053Z,19.00
2022-10-31T16:30:45.466Z,18.80
2022-10-31T16:33:24.080Z,19.00
2022-10-31T16:35:56.143Z,19.30
2022-10-31T16:38:32.411Z,19.30
2022-10-31T16:41:00.427Z,19.10
2022-10-31T16:43:28.445Z,19.30
2022-10-31T16:45:56.507Z,19.60
2022-10-31T16:48:26.226Z,19.80
2022-10-31T16:50:54.184Z,20.00
2022-10-31T16:53:22.681Z,20.20
2022-10-31T16:55:52.949Z,20.00
2022-10-31T16:58:25.524Z,19.70
2022-10-31T17:00:53.544Z,19.80
2022-10-31T17:03:21.664Z,19.40
2022-10-31T17:05:51.102Z,19.50
2022-10-31T17:08:19.042Z,19.70
2022-10-31T17:10:47.199Z,19.90
2022-10-31T17:13:16.992Z,19.80
2022-10-31T17:15:46.012Z,19.50
2022-10-31T17:18:14.039Z,18.70
2022-10-31T17:20:41.989Z,18.80
2022-10-31T17:23:12.015Z,19.00
2022-10-31T17:25:40.032Z,19.20
2022-10-31T17:28:08.052Z,19.20
2022-10-31T17:30:36.945Z,18.80
2022-10-31T17:33:04.920Z,18.80
2022-10-31T17:35:32.813Z,19.00
2022-10-31T17:38:00.935Z,19.10
2022-10-31T17:40:30.277Z,19.20
2022-10-31T17:42:58.696Z,19.10
2022-10-31T17:45:27.343Z,18.80
2022-10-31T17:47:55.268Z,18.90
2022-10-31T17:50:23.726Z,18.80
2022-10-31T17:52:51.704Z,18.90
2022-10-31T17:55:19.659Z,19.00
2022-10-31T17:57:49.107Z,19.00
2022-10-31T18:00:17.465Z,18.90
2022-10-31T18:02:45.605Z,19.00
2022-10-31T18:05:13.761Z,18.80
2022-10-31T18:07:41.684Z,19.00
2022-10-31T18:10:10.406Z,19.20
2022-10-31T18:12:38.388Z,19.20
2022-10-31T18:15:08.261Z,18.80
2022-10-31T18:17:39.437Z,19.00
2022-10-31T18:20:10.630Z,18.70
2022-10-31T18:22:38.559Z,18.70
2022-10-31T18:25:07.169Z,19.00
2022-10-31T18:27:35.143Z,18.80
2022-10-31T18:30:03.113Z,18.80
2022-10-31T18:32:32.469Z,18.90
2022-10-31T18:35:00.413Z,18.90
2022-10-31T18:37:28.904Z,18.90
2022-10-31T18:39:57.053Z,18.90
2022-10-31T18:42:24.960Z,19.10
2022-10-31T18:44:52.918Z,18.80
2022-10-31T18:47:20.862Z,19.00
2022-10-31T18:49:50.199Z,18.80
2022-10-31T18:52:18.396Z,18.20
2022-10-31T18:54:46.556Z,18.10
2022-10-31T18:57:14.559Z,18.40
2022-10-31T18:59:42.577Z,18.70
2022-10-31T19:02:10.653Z,18.80
2022-10-31T19:04:38.755Z,18.50
2022-10-31T19:07:08.202Z,18.50
2022-10-31T19:09:36.083Z,18.40
2022-10-31T19:12:04.087Z,18.10
2022-10-31T19:14:32.033Z,17.90
2022-10-31T19:17:02.269Z,17.80
2022-10-31T19:19:30.733Z,18.00
2022-10-31T19:21:58.955Z,17.50
2022-10-31T19:24:28.824Z,17.00
2022-10-31T19:26:56.879Z,17.20
2022-10-31T19:29:24.760Z,17.50
2022-10-31T19:31:53.117Z,17.50
2022-10-31T19:34:21.089Z,17.70
2022-10-31T19:36:49.032Z,17.80
2022-10-31T19:39:16.965Z,17.50
2022-10-31T19:41:46.326Z,17.60
2022-10-31T19:44:16.023Z,18.10
2022-10-31T19:46:53.017Z,18.20
2022-10-31T19:49:21.616Z,18.20
2022-10-31T19:51:49.604Z,17.90
2022-10-31T19:54:17.782Z,17.70
2022-10-31T19:56:47.132Z,17.80
2022-10-31T19:59:15.115Z,17.80
2022-10-31T20:01:43.539Z,18.00
2022-10-31T20:04:11.613Z,17.70
2022-10-31T20:06:40.308Z,17.80
2022-10-31T20:09:09.682Z,18.00
2022-10-31T20:11:37.796Z,17.90
2022-10-31T20:14:07.222Z,18.00
2022-10-31T20:16:35.393Z,17.60
2022-10-31T20:19:03.264Z,17.80
2022-10-31T20:21:32.062Z,17.90
2022-10-31T20:24:00.198Z,17.70
2022-10-31T20:26:28.414Z,17.70
2022-10-31T20:28:56.994Z,17.60
2022-10-31T20:31:27.194Z,17.70
2022-10-31T20:33:55.824Z,17.70
2022-10-31T20:36:24.187Z,17.50
2022-10-31T20:38:52.451Z,17.50
2022-10-31T20:41:20.396Z,17.60
2022-10-31T20:43:48.401Z,17.70
2022-10-31T20:46:16.660Z,17.30
2022-10-31T20:48:46.131Z,16.70
2022-10-31T20:53:43.893Z,16.70
2022-10-31T20:56:12.264Z,16.80
2022-10-31T20:58:40.533Z,16.60
2022-10-31T21:01:09.433Z,16.40
2022-10-31T21:03:37.477Z,16.20
2022-10-31T21:06:07.068Z,16.00
2022-10-31T21:08:35.203Z,16.20
2022-10-31T21:11:06.167Z,15.90
2022-10-31T21:13:40.554Z,15.90
2022-10-31T21:16:09.399Z,16.10
2022-10-31T21:18:37.705Z,16.00
2022-10-31T21:21:09.837Z,15.60
2022-10-31T21:23:37.756Z,15.50
2022-10-31T21:26:06.368Z,15.30
2022-10-31T21:28:34.712Z,15.30
2022-10-31T21:31:06.023Z,15.60
2022-10-31T21:33:34.245Z,15.80
2022-10-31T21:36:02.155Z,15.30
2022-10-31T21:38:31.818Z,15.90
2022-10-31T21:41:01.060Z,15.90
2022-10-31T21:43:30.064Z,15.90
2022-10-31T21:46:02.887Z,16.40
2022-10-31T21:48:31.148Z,16.50
2022-10-31T21:51:01.141Z,16.50
2022-10-31T21:53:46.356Z,16.70
2022-10-31T21:56:15.683Z,16.80
2022-10-31T21:58:43.698Z,16.10
2022-10-31T22:01:11.688Z,16.60
2022-10-31T22:03:39.941Z,16.80
2022-10-31T22:06:08.764Z,16.50
2022-10-31T22:08:36.717Z,16.30
2022-10-31T22:11:04.646Z,16.00
2022-10-31T22:13:34.614Z,16.50
2022-10-31T22:16:02.732Z,16.60
2022-10-31T22:18:30.654Z,16.10
2022-10-31T22:21:02.229Z,16.20
2022-10-31T22:23:30.986Z,16.00
2022-10-31T22:25:59.298Z,16.00
2022-10-31T22:28:30.220Z,15.70
2022-10-31T22:31:00.896Z,15.70
2022-10-31T22:33:28.988Z,15.80
2022-10-31T22:35:57.069Z,15.70
2022-10-31T22:38:24.988Z,15.50
2022-10-31T22:40:56.840Z,15.80
2022-10-31T22:43:24.844Z,15.80
2022-10-31T22:45:56.294Z,15.70
2022-10-31T22:48:26.436Z,16.00
2022-10-31T22:50:54.398Z,15.90
2022-10-31T22:53:22.283Z,16.10
2022-10-31T22:55:50.775Z,16.00
2022-10-31T22:58:18.755Z,15.70
2022-10-31T23:00:46.801Z,16.00
2022-10-31T23:03:14.819Z,16.30
2022-10-31T23:05:44.179Z,16.70
2022-10-31T23:08:12.154Z,16.30
2022-10-31T23:10:42.199Z,16.20
2022-10-31T23:13:27.478Z,16.10
2022-10-31T23:15:55.359Z,16.10
2022-10-31T23:18:48.021Z,15.90
2022-10-31T23:21:32.732Z,15.70
2022-10-31T23:24:00.684Z,15.90
2022-10-31T23:26:46.239Z,15.90
2022-10-31T23:29:14.401Z,15.90
2022-10-31T23:31:42.315Z,15.80
2022-10-31T23:34:10.269Z,15.80
2022-10-31T23:36:39.664Z,16.00
2022-10-31T23:39:07.603Z,15.90
2022-10-31T23:41:36.513Z,15.70
2022-10-31T23:44:04.409Z,16.00
2022-10-31T23:46:32.421Z,16.10
2022-10-31T23:49:00.423Z,16.00
2022-10-31T23:51:28.404Z,15.70
2022-10-31T23:53:57.718Z,15.90
2022-10-31T23:56:25.635Z,15.90
2022-10-31T23:58:54.270Z,15.60
